createdAt,value
2023-05-17T00:02:08.545Z,21.10
2023-05-17T00:04:36.128Z,28.30
2023-05-17T00:07:03.539Z,21.52
2023-05-17T00:09:31.212Z,20.25
2023-05-17T00:11:58.629Z,23.85
2023-05-17T00:14:26.996Z,23.52
2023-05-17T00:16:55.371Z,22.88
2023-05-17T00:19:24.586Z,23.45
2023-05-17T00:21:52.004Z,20.70
2023-05-17T00:24:19.470Z,17.60
2023-05-17T00:26:46.849Z,16.05
2023-05-17T00:29:14.263Z,17.35
2023-05-17T00:31:43.178Z,18.67
2023-05-17T00:34:10.529Z,18.95
2023-05-17T00:36:38.455Z,17.73
2023-05-17T00:39:07.229Z,16.60
2023-05-17T00:41:34.615Z,18.48
2023-05-17T00:44:02.006Z,17.17
2023-05-17T00:46:29.739Z,20.13
2023-05-17T00:48:58.013Z,18.13
2023-05-17T00:51:25.679Z,18.17
2023-05-17T00:53:53.722Z,22.13
2023-05-17T00:56:32.878Z,25.80
2023-05-17T00:59:06.096Z,28.60
2023-05-17T01:01:34.910Z,28.98
2023-05-17T01:04:04.100Z,29.42
2023-05-17T01:06:34.031Z,30.50
2023-05-17T01:09:01.816Z,28.95
2023-05-17T01:11:40.704Z,30.98
2023-05-17T01:14:12.064Z,29.50
2023-05-17T01:16:50.849Z,29.40
2023-05-17T01:19:21.439Z,30.67
2023-05-17T01:21:59.313Z,31.75
2023-05-17T01:24:33.614Z,28.35
2023-05-17T01:27:04.568Z,26.27
2023-05-17T01:29:34.969Z,25.35
2023-05-17T01:32:04.550Z,26.98
2023-05-17T01:34:33.267Z,25.90
2023-05-17T01:37:00.782Z,26.55
2023-05-17T01:39:28.260Z,27.83
2023-05-17T01:42:10.028Z,26.42
2023-05-17T01:44:51.096Z,24.80
2023-05-17T01:47:36.129Z,24.48
2023-05-17T01:50:04.500Z,24.20
2023-05-17T01:52:44.054Z,23.83
2023-05-17T01:55:27.299Z,25.05
2023-05-17T01:57:59.193Z,24.77
2023-05-17T02:00:29.655Z,23.90
2023-05-17T02:02:58.786Z,23.48
2023-05-17T02:05:28.938Z,21.65
2023-05-17T02:07:57.696Z,23.17
2023-05-17T02:10:25.162Z,20.40
2023-05-17T02:12:52.780Z,21.55
2023-05-17T02:15:21.157Z,20.52
2023-05-17T02:17:48.832Z,23.80
2023-05-17T02:20:17.576Z,19.63
2023-05-17T02:22:45.538Z,21.08
2023-05-17T02:25:13.913Z,22.10
2023-05-17T02:27:42.412Z,21.85
2023-05-17T02:30:10.089Z,21.73
2023-05-17T02:32:39.010Z,22.58
2023-05-17T02:35:08.581Z,21.80
2023-05-17T02:37:37.538Z,23.02
2023-05-17T02:40:26.315Z,22.95
2023-05-17T02:42:53.669Z,22.05
2023-05-17T02:45:28.585Z,22.67
2023-05-17T02:48:03.410Z,21.60
2023-05-17T02:50:35.913Z,23.92
2023-05-17T02:53:05.807Z,24.17
2023-05-17T02:55:34.365Z,24.05
2023-05-17T02:58:01.720Z,21.63
2023-05-17T03:00:30.952Z,22.38
2023-05-17T03:03:05.262Z,24.63
2023-05-17T03:05:39.102Z,22.58
2023-05-17T03:08:07.894Z,23.10
2023-05-17T03:10:35.754Z,21.30
2023-05-17T03:13:03.630Z,24.13
2023-05-17T03:15:38.938Z,21.58
2023-05-17T03:18:23.174Z,22.08
2023-05-17T03:20:51.608Z,20.10
2023-05-17T03:23:24.210Z,20.83
2023-05-17T03:25:59.590Z,21.55
2023-05-17T03:28:29.682Z,21.77
2023-05-17T03:31:00.334Z,20.73
2023-05-17T03:33:31.694Z,20.98
2023-05-17T03:36:00.897Z,21.80
2023-05-17T03:38:29.216Z,21.55
2023-05-17T03:40:56.635Z,19.98
2023-05-17T03:43:24.600Z,19.05
2023-05-17T03:45:52.860Z,19.95
2023-05-17T03:48:23.203Z,19.60
2023-05-17T03:50:52.946Z,20.02
2023-05-17T03:53:21.048Z,19.17
2023-05-17T03:55:48.726Z,20.85
2023-05-17T03:58:17.659Z,18.17
2023-05-17T04:00:47.149Z,20.13
2023-05-17T04:03:20.234Z,19.02
2023-05-17T04:05:48.476Z,19.58
2023-05-17T04:08:17.244Z,18.50
2023-05-17T04:10:45.300Z,18.90
2023-05-17T04:13:15.933Z,20.85
2023-05-17T04:15:46.066Z,20.67
2023-05-17T04:18:19.620Z,20.50
2023-05-17T04:21:02.706Z,20.38
2023-05-17T04:23:34.304Z,21.00
2023-05-17T04:26:03.432Z,19.60
2023-05-17T04:28:35.447Z,19.88
2023-05-17T04:31:08.379Z,22.25
2023-05-17T04:33:38.835Z,19.83
2023-05-17T04:36:07.689Z,21.02
2023-05-17T04:38:37.324Z,22.00
2023-05-17T04:41:09.581Z,19.05
2023-05-17T04:43:39.297Z,20.45
2023-05-17T04:46:12.674Z,19.33
2023-05-17T04:48:44.621Z,19.13
2023-05-17T04:51:14.139Z,19.40
2023-05-17T04:53:42.370Z,20.08
2023-05-17T04:56:17.358Z,19.45
2023-05-17T04:58:45.842Z,17.38
2023-05-17T05:01:13.652Z,19.88
2023-05-17T05:03:41.279Z,18.70
2023-05-17T05:06:11.400Z,20.17
2023-05-17T05:08:41.722Z,19.88
2023-05-17T05:11:12.091Z,17.20
2023-05-17T05:13:41.769Z,18.52
2023-05-17T05:16:14.091Z,18.42
2023-05-17T05:18:42.100Z,19.23
2023-05-17T05:21:09.554Z,19.08
2023-05-17T05:23:38.491Z,18.75
2023-05-17T05:26:06.102Z,17.58
2023-05-17T05:28:37.368Z,19.80
2023-05-17T05:31:04.877Z,17.95
2023-05-17T05:33:40.969Z,17.65
2023-05-17T05:36:09.695Z,16.90
2023-05-17T05:38:38.154Z,15.20
2023-05-17T05:41:06.752Z,16.70
2023-05-17T05:43:36.273Z,14.90
2023-05-17T05:46:05.677Z,18.17
2023-05-17T05:48:33.689Z,15.10
2023-05-17T05:51:01.257Z,15.20
2023-05-17T05:53:31.074Z,13.88
2023-05-17T05:55:58.568Z,12.90
2023-05-17T05:58:28.813Z,14.20
2023-05-17T06:00:57.493Z,14.07
2023-05-17T06:03:35.836Z,12.35
2023-05-17T06:06:19.811Z,12.27
2023-05-17T06:08:47.570Z,14.95
2023-05-17T06:11:15.040Z,12.45
2023-05-17T06:13:42.398Z,14.45
2023-05-17T06:16:10.042Z,13.05
2023-05-17T06:18:37.653Z,14.45
2023-05-17T06:21:05.371Z,14.38
2023-05-17T06:23:35.408Z,13.93
2023-05-17T06:26:04.210Z,13.30
2023-05-17T06:28:38.125Z,15.35
2023-05-17T06:31:21.200Z,16.65
2023-05-17T06:33:52.928Z,15.18
2023-05-17T06:36:21.090Z,18.77
2023-05-17T06:38:51.571Z,14.75
2023-05-17T06:41:20.426Z,16.42
2023-05-17T06:43:47.912Z,14.05
2023-05-17T06:46:15.400Z,13.70
2023-05-17T06:48:50.772Z,14.10
2023-05-17T06:51:19.604Z,14.25
2023-05-17T06:53:51.323Z,15.75
2023-05-17T06:56:18.793Z,13.93
2023-05-17T06:58:46.242Z,15.68
2023-05-17T07:01:14.135Z,13.20
2023-05-17T07:03:41.644Z,14.13
2023-05-17T07:06:11.104Z,13.15
2023-05-17T07:08:38.467Z,13.95
2023-05-17T07:11:05.891Z,14.00
2023-05-17T07:13:34.085Z,15.52
2023-05-17T07:16:05.772Z,15.02
2023-05-17T07:18:33.307Z,12.95
2023-05-17T07:21:01.439Z,16.17
2023-05-17T07:23:28.856Z,12.95
2023-05-17T07:25:56.678Z,14.50
2023-05-17T07:28:25.599Z,14.55
2023-05-17T07:30:53.400Z,13.60
2023-05-17T07:33:23.338Z,13.88
2023-05-17T07:35:55.928Z,15.25
2023-05-17T07:38:24.215Z,13.80
2023-05-17T07:40:52.757Z,14.68
2023-05-17T07:43:22.466Z,13.55
2023-05-17T07:45:52.907Z,14.32
2023-05-17T07:48:21.274Z,13.65
2023-05-17T07:50:53.307Z,12.63
2023-05-17T07:56:05.612Z,14.00
2023-05-17T07:58:33.082Z,16.65
2023-05-17T08:01:04.052Z,12.30
2023-05-17T08:03:33.076Z,13.30
2023-05-17T08:06:04.127Z,14.85
2023-05-17T08:08:32.889Z,16.75
2023-05-17T08:11:05.588Z,14.45
2023-05-17T08:13:32.979Z,14.50
2023-05-17T08:16:14.652Z,12.75
2023-05-17T08:18:50.846Z,14.55
2023-05-17T08:21:21.588Z,13.43
2023-05-17T08:23:57.659Z,13.20
2023-05-17T08:26:25.048Z,12.38
2023-05-17T08:28:54.713Z,12.45
2023-05-17T08:31:22.570Z,12.13
2023-05-17T08:33:50.339Z,12.65
2023-05-17T08:36:17.835Z,12.23
2023-05-17T08:38:45.291Z,12.90
2023-05-17T08:41:15.170Z,11.40
2023-05-17T08:43:44.682Z,11.85
2023-05-17T08:46:13.108Z,10.57
2023-05-17T08:48:43.224Z,10.15
2023-05-17T08:51:12.260Z,12.23
2023-05-17T08:53:43.133Z,10.13
2023-05-17T08:56:16.291Z,11.20
2023-05-17T08:58:56.345Z,11.52
2023-05-17T09:01:26.810Z,11.27
2023-05-17T09:03:55.146Z,10.20
2023-05-17T09:06:23.358Z,11.18
2023-05-17T09:08:56.853Z,10.82
2023-05-17T09:11:30.131Z,11.95
2023-05-17T09:14:11.331Z,15.70
2023-05-17T09:16:38.878Z,15.48
2023-05-17T09:19:08.551Z,18.00
2023-05-17T09:21:37.220Z,16.67
2023-05-17T09:24:08.963Z,13.43
2023-05-17T09:26:46.127Z,12.80
2023-05-17T09:29:18.153Z,15.73
2023-05-17T09:31:53.734Z,15.20
2023-05-17T09:34:39.091Z,16.63
2023-05-17T09:37:09.912Z,19.05
2023-05-17T09:39:39.758Z,18.73
2023-05-17T09:42:14.595Z,15.63
2023-05-17T09:45:06.601Z,16.63
2023-05-17T09:47:37.942Z,17.53
2023-05-17T09:50:08.203Z,17.92
2023-05-17T09:52:43.025Z,14.70
2023-05-17T09:55:22.713Z,13.20
2023-05-17T09:57:52.555Z,14.82
2023-05-17T10:00:22.128Z,14.90
2023-05-17T10:02:50.934Z,19.63
2023-05-17T10:05:25.920Z,20.02
2023-05-17T10:08:02.944Z,25.95
2023-05-17T10:10:33.328Z,24.48
2023-05-17T10:13:02.136Z,24.20
2023-05-17T10:15:35.163Z,23.53
2023-05-17T10:18:20.246Z,24.37
2023-05-17T10:20:53.712Z,25.38
2023-05-17T10:23:26.963Z,24.27
2023-05-17T10:29:13.654Z,25.77
2023-05-17T10:32:12.951Z,26.93
2023-05-17T10:35:06.050Z,25.37
2023-05-17T10:37:47.209Z,25.00
2023-05-17T10:40:14.620Z,24.27
2023-05-17T10:42:45.777Z,23.10
2023-05-17T10:45:14.983Z,21.23
2023-05-17T10:47:54.427Z,22.60
2023-05-17T10:50:27.413Z,22.10
2023-05-17T10:53:06.120Z,23.17
2023-05-17T10:55:41.228Z,20.13
2023-05-17T10:58:11.768Z,18.97
2023-05-17T11:00:48.255Z,16.98
2023-05-17T11:03:50.882Z,20.23
2023-05-17T11:06:24.449Z,18.70
2023-05-17T11:09:12.169Z,22.42
2023-05-17T11:12:14.074Z,20.88
2023-05-17T11:14:50.219Z,31.90
2023-05-17T11:17:22.117Z,21.10
2023-05-17T11:19:59.528Z,26.00
2023-05-17T11:22:29.808Z,21.13
2023-05-17T11:24:59.457Z,20.38
2023-05-17T11:27:31.094Z,19.33
2023-05-17T11:30:00.417Z,22.03
2023-05-17T11:32:32.559Z,22.47
2023-05-17T11:35:04.386Z,21.77
2023-05-17T11:37:34.404Z,19.15
2023-05-17T11:40:04.261Z,21.63
2023-05-17T11:42:31.617Z,23.48
2023-05-17T11:45:01.983Z,27.83
2023-05-17T11:47:29.928Z,22.23
2023-05-17T11:50:01.072Z,16.83
2023-05-17T11:52:29.380Z,22.90
2023-05-17T11:54:58.179Z,18.80
2023-05-17T11:57:32.249Z,21.00
2023-05-17T12:00:01.506Z,20.60
2023-05-17T12:02:30.133Z,18.13
2023-05-17T12:04:58.539Z,17.63
2023-05-17T12:10:15.256Z,20.40
2023-05-17T12:12:43.781Z,15.83
2023-05-17T12:15:18.488Z,17.07
2023-05-17T12:17:50.785Z,15.23
2023-05-17T12:20:19.126Z,17.67
2023-05-17T12:23:02.606Z,18.45
2023-05-17T12:25:35.224Z,22.27
2023-05-17T12:28:23.757Z,17.48
2023-05-17T12:31:10.136Z,16.70
2023-05-17T12:33:45.338Z,21.58
2023-05-17T12:36:13.761Z,19.90
2023-05-17T12:38:43.670Z,18.55
2023-05-17T12:41:14.594Z,18.65
2023-05-17T12:43:48.460Z,17.45
2023-05-17T12:46:21.681Z,17.55
2023-05-17T12:48:51.846Z,18.60
2023-05-17T12:51:27.168Z,19.20
2023-05-17T12:54:06.237Z,22.55
2023-05-17T12:56:49.336Z,18.50
2023-05-17T12:59:21.450Z,21.38
2023-05-17T13:01:52.085Z,18.20
2023-05-17T13:04:23.929Z,19.52
2023-05-17T13:07:00.337Z,18.63
2023-05-17T13:09:31.160Z,22.40
2023-05-17T13:12:02.545Z,19.83
2023-05-17T13:14:48.116Z,20.05
2023-05-17T13:17:44.714Z,25.88
2023-05-17T13:20:18.612Z,21.35
2023-05-17T13:29:01.561Z,17.38
2023-05-17T13:31:54.383Z,22.00
2023-05-17T13:34:23.415Z,25.27
2023-05-17T13:37:02.447Z,16.40
2023-05-17T13:39:40.578Z,19.83
2023-05-17T13:42:14.298Z,18.45
2023-05-17T13:47:50.913Z,17.83
2023-05-17T13:50:25.753Z,16.10
2023-05-17T13:53:28.088Z,19.08
2023-05-17T13:58:58.431Z,18.77
2023-05-17T14:01:26.291Z,24.00
2023-05-17T14:04:00.306Z,27.73
2023-05-17T14:06:40.235Z,29.52
2023-05-17T14:09:15.451Z,24.02
2023-05-17T14:14:33.849Z,26.60
2023-05-17T14:17:11.918Z,21.65
2023-05-17T14:19:40.242Z,19.35
2023-05-17T14:22:35.415Z,15.65
2023-05-17T14:25:30.073Z,20.92
2023-05-17T14:28:06.725Z,24.10
2023-05-17T14:30:39.443Z,24.05
2023-05-17T14:42:41.196Z,28.40
2023-05-17T14:45:14.139Z,22.35
2023-05-17T14:47:51.976Z,20.48
2023-05-17T14:50:33.041Z,27.25
2023-05-17T14:53:13.344Z,19.40
2023-05-17T14:55:51.509Z,22.17
2023-05-17T14:58:23.831Z,24.55
2023-05-17T15:01:05.107Z,22.83
2023-05-17T15:06:51.715Z,24.80
2023-05-17T15:09:24.381Z,24.80
2023-05-17T15:15:06.996Z,22.15
2023-05-17T15:17:41.549Z,18.95
2023-05-17T15:20:11.387Z,20.85
2023-05-17T15:22:45.234Z,19.02
2023-05-17T15:25:15.565Z,20.83
2023-05-17T15:27:43.966Z,18.10
2023-05-17T15:30:13.666Z,22.45
2023-05-17T15:32:44.366Z,20.92
2023-05-17T15:35:19.458Z,16.33
2023-05-17T15:37:51.073Z,18.10
2023-05-17T15:40:21.753Z,15.95
2023-05-17T15:42:53.773Z,15.80
2023-05-17T15:45:30.514Z,20.15
2023-05-17T15:48:01.963Z,18.92
2023-05-17T15:50:30.766Z,14.85
2023-05-17T15:53:03.384Z,14.80
2023-05-17T15:55:36.368Z,17.93
2023-05-17T15:58:14.480Z,15.80
2023-05-17T16:00:48.539Z,16.53
2023-05-17T16:03:28.635Z,15.97
2023-05-17T16:06:08.326Z,16.17
2023-05-17T16:09:11.164Z,17.20
2023-05-17T16:11:42.526Z,18.20
2023-05-17T16:14:25.668Z,18.13
2023-05-17T16:16:57.747Z,21.50
2023-05-17T16:19:39.352Z,14.30
2023-05-17T16:22:11.923Z,16.50
2023-05-17T16:24:52.888Z,15.52
2023-05-17T16:27:20.769Z,17.33
2023-05-17T16:29:48.160Z,13.77
2023-05-17T16:32:15.965Z,15.85
2023-05-17T16:34:43.371Z,18.25
2023-05-17T16:37:13.841Z,15.27
2023-05-17T16:39:42.834Z,14.07
2023-05-17T16:42:10.270Z,17.00
2023-05-17T16:44:40.617Z,20.88
2023-05-17T16:47:08.216Z,18.83
2023-05-17T16:49:37.175Z,16.10
2023-05-17T16:52:04.624Z,14.77
2023-05-17T16:54:37.045Z,16.25
2023-05-17T16:57:08.131Z,13.32
2023-05-17T16:59:36.112Z,15.43
2023-05-17T17:02:05.192Z,14.90
2023-05-17T17:04:45.705Z,14.25
2023-05-17T17:07:19.797Z,14.50
2023-05-17T17:09:49.613Z,13.45
2023-05-17T17:12:24.713Z,13.90
2023-05-17T17:15:02.024Z,13.15
2023-05-17T17:17:30.327Z,13.13
2023-05-17T17:19:58.009Z,14.52
2023-05-17T17:23:16.880Z,14.23
2023-05-17T17:25:44.430Z,17.92
2023-05-17T17:28:17.006Z,17.35
2023-05-17T17:30:47.839Z,17.27
2023-05-17T17:33:24.762Z,13.93
2023-05-17T17:35:52.647Z,18.38
2023-05-17T17:38:20.431Z,16.80
2023-05-17T17:40:53.295Z,16.08
2023-05-17T17:43:28.997Z,18.08
2023-05-17T17:45:58.589Z,14.52
2023-05-17T17:48:32.362Z,16.42
2023-05-17T17:51:01.501Z,15.70
2023-05-17T17:53:31.522Z,16.00
2023-05-17T17:58:55.340Z,16.10
2023-05-17T18:01:31.540Z,16.10
2023-05-17T18:04:03.529Z,16.30
2023-05-17T18:06:50.201Z,13.10
2023-05-17T18:09:48.633Z,15.15
2023-05-17T18:12:18.235Z,14.82
2023-05-17T18:14:52.909Z,16.52
2023-05-17T18:17:21.603Z,13.35
2023-05-17T18:19:51.898Z,14.98
2023-05-17T18:22:19.420Z,15.75
2023-05-17T18:24:49.122Z,16.23
2023-05-17T18:27:17.426Z,13.73
2023-05-17T18:29:44.940Z,12.10
2023-05-17T18:32:14.220Z,15.63
2023-05-17T18:34:43.766Z,12.23
2023-05-17T18:40:36.342Z,14.57
2023-05-17T18:43:31.188Z,14.13
2023-05-17T18:45:59.193Z,13.32
2023-05-17T18:48:28.429Z,15.02
2023-05-17T18:51:00.470Z,17.73
2023-05-17T18:53:41.992Z,17.38
2023-05-17T18:56:12.530Z,15.63
2023-05-17T18:58:46.352Z,14.48
2023-05-17T19:01:15.690Z,14.18
2023-05-17T19:03:44.298Z,14.03
2023-05-17T19:06:14.234Z,14.60
2023-05-17T19:09:14.213Z,14.32
2023-05-17T19:11:43.080Z,16.00
2023-05-17T19:14:13.423Z,15.93
2023-05-17T19:16:41.305Z,13.87
2023-05-17T19:19:12.151Z,11.87
2023-05-17T19:21:44.053Z,13.67
2023-05-17T19:24:32.773Z,17.10
2023-05-17T19:27:04.948Z,19.83
2023-05-17T19:29:33.360Z,16.50
2023-05-17T19:32:05.559Z,20.40
2023-05-17T19:34:36.249Z,16.43
2023-05-17T19:37:04.271Z,15.87
2023-05-17T19:39:31.650Z,14.73
2023-05-17T19:42:04.872Z,18.33
2023-05-17T19:44:33.462Z,18.50
2023-05-17T19:47:02.101Z,20.40
2023-05-17T19:49:32.149Z,16.85
2023-05-17T19:52:04.745Z,16.00
2023-05-17T19:54:32.101Z,17.35
2023-05-17T19:57:02.429Z,17.33
2023-05-17T19:59:55.509Z,15.07
2023-05-17T20:02:26.357Z,16.92
2023-05-17T20:04:55.754Z,22.83
2023-05-17T20:07:27.965Z,22.27
2023-05-17T20:09:55.478Z,16.95
2023-05-17T20:12:26.675Z,26.92
2023-05-17T20:15:02.877Z,15.23
2023-05-17T20:17:32.737Z,17.13
2023-05-17T20:20:02.624Z,20.52
2023-05-17T20:22:33.398Z,18.92
2023-05-17T20:25:10.796Z,18.60
2023-05-17T20:27:39.065Z,19.77
2023-05-17T20:30:09.809Z,18.75
2023-05-17T20:32:37.900Z,20.00
2023-05-17T20:35:06.161Z,20.17
2023-05-17T20:37:39.650Z,21.77
2023-05-17T20:40:09.182Z,23.38
2023-05-17T20:42:37.799Z,17.50
2023-05-17T20:45:09.139Z,19.07
2023-05-17T20:47:37.833Z,21.23
2023-05-17T20:50:06.181Z,20.47
2023-05-17T20:52:39.400Z,23.70
2023-05-17T20:55:12.031Z,19.53
2023-05-17T20:57:39.597Z,16.48
2023-05-17T21:00:09.616Z,20.57
2023-05-17T21:02:39.840Z,17.00
2023-05-17T21:05:09.220Z,19.53
2023-05-17T21:07:39.606Z,22.77
2023-05-17T21:10:14.371Z,19.23
2023-05-17T21:12:44.339Z,17.43
2023-05-17T21:15:30.737Z,17.33
2023-05-17T21:17:59.608Z,20.70
2023-05-17T21:20:28.625Z,20.20
2023-05-17T21:23:00.143Z,22.80
2023-05-17T21:25:33.483Z,17.03
2023-05-17T21:28:02.553Z,17.50
2023-05-17T21:30:30.601Z,17.63
2023-05-17T21:33:00.397Z,24.53
2023-05-17T21:35:29.392Z,17.90
2023-05-17T21:37:57.009Z,19.02
2023-05-17T21:40:26.246Z,15.47
2023-05-17T21:43:00.004Z,19.30
2023-05-17T21:45:27.748Z,15.53
2023-05-17T21:47:55.289Z,14.80
2023-05-17T21:50:23.223Z,19.13
2023-05-17T21:52:50.713Z,14.63
2023-05-17T21:55:21.204Z,16.20
2023-05-17T21:57:48.726Z,13.93
2023-05-17T22:00:16.889Z,17.97
2023-05-17T22:02:48.817Z,13.17
2023-05-17T22:05:17.497Z,12.50
2023-05-17T22:07:47.989Z,14.50
2023-05-17T22:10:17.623Z,14.20
2023-05-17T22:12:54.884Z,11.27
2023-05-17T22:15:27.930Z,15.80
2023-05-17T22:17:56.435Z,22.30
2023-05-17T22:20:31.821Z,18.97
2023-05-17T22:23:30.584Z,14.90
2023-05-17T22:26:28.054Z,12.53
2023-05-17T22:29:02.303Z,18.73
2023-05-17T22:31:38.155Z,15.67
2023-05-17T22:34:08.175Z,19.43
2023-05-17T22:36:38.495Z,14.93
2023-05-17T22:39:13.129Z,13.57
2023-05-17T22:41:40.633Z,15.87
2023-05-17T22:44:11.409Z,15.13
2023-05-17T22:46:39.167Z,13.53
2023-05-17T22:49:09.539Z,15.80
2023-05-17T22:51:38.896Z,13.90
2023-05-17T22:54:11.974Z,12.63
2023-05-17T22:56:41.099Z,16.77
2023-05-17T22:59:10.714Z,20.87
2023-05-17T23:01:38.109Z,17.60
2023-05-17T23:04:05.720Z,16.67
2023-05-17T23:06:35.892Z,17.97
2023-05-17T23:09:03.698Z,15.97
2023-05-17T23:11:31.205Z,15.07
2023-05-17T23:14:00.819Z,21.30
2023-05-17T23:16:28.544Z,14.83
2023-05-17T23:18:55.917Z,15.43
2023-05-17T23:21:23.373Z,14.40
2023-05-17T23:23:54.521Z,12.20
2023-05-17T23:26:22.188Z,11.73
2023-05-17T23:28:51.417Z,11.60
2023-05-17T23:31:19.427Z,14.60
2023-05-17T23:33:46.960Z,12.80
2023-05-17T23:36:14.583Z,14.03
2023-05-17T23:38:43.466Z,9.83
2023-05-17T23:41:20.756Z,18.07
2023-05-17T23:44:11.088Z,8.03
2023-05-17T23:46:44.807Z,12.17
2023-05-17T23:49:12.517Z,10.33
2023-05-17T23:51:40.335Z,8.43
2023-05-17T23:54:09.452Z,9.97
2023-05-17T23:56:44.088Z,9.53
2023-05-17T23:59:12.343Z,14.03
